createdAt,value
2019-04-04T00:00:37.813Z,0.00
2019-04-04T00:01:37.755Z,0.00
2019-04-04T00:02:37.746Z,0.00
2019-04-04T00:03:37.733Z,0.00
2019-04-04T00:04:37.728Z,0.00
2019-04-04T00:05:37.707Z,0.00
2019-04-04T00:06:37.712Z,0.00
2019-04-04T00:07:37.694Z,0.00
2019-04-04T00:08:37.683Z,0.00
2019-04-04T00:09:37.675Z,0.00
2019-04-04T00:10:37.665Z,0.00
2019-04-04T00:11:37.674Z,0.00
2019-04-04T00:12:39.072Z,0.00
2019-04-04T00:13:37.627Z,0.00
2019-04-04T00:14:37.616Z,0.00
2019-04-04T00:15:37.666Z,0.00
2019-04-04T00:16:37.595Z,0.00
2019-04-04T00:17:37.589Z,0.00
2019-04-04T00:18:37.574Z,0.00
2019-04-04T00:19:37.559Z,0.00
2019-04-04T00:20:37.552Z,0.00
2019-04-04T00:21:37.625Z,0.00
2019-04-04T00:22:37.526Z,0.00
2019-04-04T00:23:38.075Z,0.00
2019-04-04T00:24:39.362Z,0.00
2019-04-04T00:25:40.290Z,0.00
2019-04-04T00:26:37.500Z,0.00
2019-04-04T00:27:37.487Z,0.00
2019-04-04T00:28:37.480Z,0.00
2019-04-04T00:29:37.456Z,0.00
2019-04-04T00:30:37.447Z,0.00
2019-04-04T00:31:37.466Z,0.00
2019-04-04T00:32:37.424Z,0.00
2019-04-04T00:33:37.411Z,0.00
2019-04-04T00:34:37.399Z,0.00
2019-04-04T00:35:45.352Z,0.00
2019-04-04T00:36:37.393Z,0.00
2019-04-04T00:37:37.380Z,0.00
2019-04-04T00:38:37.970Z,0.00
2019-04-04T00:39:37.996Z,0.00
2019-04-04T00:40:45.369Z,0.00
2019-04-04T00:41:45.423Z,0.00
2019-04-04T00:42:45.956Z,0.00
2019-04-04T00:43:44.974Z,0.00
2019-04-04T00:44:45.001Z,0.00
2019-04-04T00:45:46.074Z,0.00
2019-04-04T00:46:46.084Z,0.00
2019-04-04T00:47:44.324Z,0.00
2019-04-04T00:48:45.153Z,0.00
2019-04-04T00:49:45.184Z,0.00
2019-04-04T00:50:46.220Z,0.00
2019-04-04T00:51:46.255Z,0.00
2019-04-04T00:52:44.772Z,0.00
2019-04-04T00:53:45.335Z,0.00
2019-04-04T00:54:37.181Z,0.00
2019-04-04T00:55:37.173Z,0.00
2019-04-04T00:56:37.163Z,0.00
2019-04-04T00:57:37.159Z,0.00
2019-04-04T00:58:37.150Z,0.00
2019-04-04T00:59:37.133Z,0.00
2019-04-04T01:00:37.116Z,0.00
2019-04-04T01:01:37.105Z,0.00
2019-04-04T01:02:37.127Z,0.00
2019-04-04T01:03:37.088Z,0.00
2019-04-04T01:04:37.079Z,0.00
2019-04-04T01:05:37.066Z,0.00
2019-04-04T01:06:37.066Z,0.00
2019-04-04T01:07:37.065Z,0.00
2019-04-04T01:08:38.879Z,0.00
2019-04-04T01:09:37.020Z,0.00
2019-04-04T01:10:37.014Z,0.00
2019-04-04T01:11:37.005Z,0.00
2019-04-04T01:12:36.992Z,0.00
2019-04-04T01:13:36.996Z,0.00
2019-04-04T01:14:36.967Z,0.00
2019-04-04T01:15:36.990Z,0.00
2019-04-04T01:16:36.945Z,0.00
2019-04-04T01:17:36.941Z,0.00
2019-04-04T01:18:37.599Z,0.00
2019-04-04T01:19:36.916Z,0.00
2019-04-04T01:20:36.906Z,0.00
2019-04-04T01:21:36.905Z,0.00
2019-04-04T01:22:36.881Z,0.00
2019-04-04T01:23:36.876Z,0.00
2019-04-04T01:24:36.865Z,0.00
2019-04-04T01:25:36.851Z,0.00
2019-04-04T01:26:36.894Z,0.00
2019-04-04T01:27:37.540Z,0.00
2019-04-04T01:28:37.160Z,0.00
2019-04-04T01:29:36.806Z,0.00
2019-04-04T01:30:36.801Z,0.00
2019-04-04T01:31:44.160Z,0.00
2019-04-04T01:32:36.774Z,0.00
2019-04-04T01:33:36.761Z,0.00
2019-04-04T01:34:36.755Z,0.00
2019-04-04T01:35:36.747Z,0.00
2019-04-04T01:36:36.795Z,0.00
2019-04-04T01:37:36.725Z,0.00
2019-04-04T01:38:36.709Z,0.00
2019-04-04T01:39:36.699Z,0.00
2019-04-04T01:40:36.691Z,0.00
2019-04-04T01:41:37.054Z,0.00
2019-04-04T01:42:38.764Z,0.00
2019-04-04T01:43:38.042Z,0.00
2019-04-04T01:44:36.650Z,0.00
2019-04-04T01:45:36.644Z,0.00
2019-04-04T01:46:36.634Z,0.00
2019-04-04T01:47:36.621Z,0.00
2019-04-04T01:48:36.618Z,0.00
2019-04-04T01:49:36.597Z,0.00
2019-04-04T01:50:36.593Z,0.00
2019-04-04T01:51:36.568Z,0.00
2019-04-04T01:52:36.559Z,0.00
2019-04-04T01:53:36.569Z,0.00
2019-04-04T01:54:36.544Z,0.00
2019-04-04T01:55:36.529Z,0.00
2019-04-04T01:56:37.128Z,0.00
2019-04-04T01:57:38.522Z,0.00
2019-04-04T01:58:36.541Z,0.00
2019-04-04T01:59:36.483Z,0.00
2019-04-04T02:00:36.487Z,0.00
2019-04-04T02:01:36.473Z,0.00
2019-04-04T02:02:36.457Z,0.00
2019-04-04T02:03:36.445Z,0.00
2019-04-04T02:04:36.449Z,0.00
2019-04-04T02:05:36.428Z,0.00
2019-04-04T02:06:36.413Z,0.00
2019-04-04T02:07:36.408Z,0.00
2019-04-04T02:08:36.403Z,0.00
2019-04-04T02:09:36.395Z,0.00
2019-04-04T02:10:36.373Z,0.00
2019-04-04T02:11:37.614Z,0.00
2019-04-04T02:12:38.477Z,0.00
2019-04-04T02:13:36.343Z,0.00
2019-04-04T02:14:36.336Z,0.00
2019-04-04T02:15:36.358Z,0.00
2019-04-04T02:16:36.315Z,0.00
2019-04-04T02:17:36.292Z,0.00
2019-04-04T02:18:36.281Z,0.00
2019-04-04T02:19:36.280Z,0.00
2019-04-04T02:20:36.272Z,0.00
2019-04-04T02:21:36.268Z,0.00
2019-04-04T02:22:36.239Z,0.00
2019-04-04T02:23:36.236Z,0.00
2019-04-04T02:24:36.222Z,0.00
2019-04-04T02:25:36.220Z,0.00
2019-04-04T02:26:36.721Z,0.00
2019-04-04T02:27:37.891Z,0.00
2019-04-04T02:28:36.183Z,0.00
2019-04-04T02:29:36.163Z,0.00
2019-04-04T02:30:36.155Z,0.00
2019-04-04T02:31:36.170Z,0.00
2019-04-04T02:32:36.131Z,0.00
2019-04-04T02:33:36.127Z,0.00
2019-04-04T02:34:37.850Z,0.00
2019-04-04T02:35:36.113Z,0.00
2019-04-04T02:36:36.097Z,0.00
2019-04-04T02:37:36.074Z,0.00
2019-04-04T02:38:36.062Z,0.00
2019-04-04T02:39:36.148Z,0.00
2019-04-04T02:40:36.061Z,0.00
2019-04-04T02:41:36.057Z,0.00
2019-04-04T02:42:36.021Z,0.00
2019-04-04T02:43:36.008Z,0.00
2019-04-04T02:44:35.998Z,0.00
2019-04-04T02:45:38.844Z,0.00
2019-04-04T02:46:35.999Z,0.00
2019-04-04T02:47:35.970Z,0.00
2019-04-04T02:48:35.968Z,0.00
2019-04-04T02:49:35.963Z,0.00
2019-04-04T02:50:36.079Z,0.00
2019-04-04T02:51:40.018Z,0.00
2019-04-04T02:52:36.925Z,0.00
2019-04-04T02:53:35.902Z,0.00
2019-04-04T02:54:35.889Z,0.00
2019-04-04T02:55:35.884Z,0.00
2019-04-04T02:56:36.335Z,0.00
2019-04-04T02:57:35.866Z,0.00
2019-04-04T02:58:35.856Z,0.00
2019-04-04T02:59:35.836Z,0.00
2019-04-04T03:00:35.834Z,0.00
2019-04-04T03:01:35.826Z,0.00
2019-04-04T03:02:36.912Z,0.00
2019-04-04T03:03:35.800Z,0.00
2019-04-04T03:04:35.779Z,0.00
2019-04-04T03:05:35.780Z,0.00
2019-04-04T03:06:35.762Z,0.00
2019-04-04T03:07:35.769Z,0.00
2019-04-04T03:08:37.699Z,0.00
2019-04-04T03:09:35.747Z,0.00
2019-04-04T03:10:35.717Z,0.00
2019-04-04T03:11:35.708Z,0.00
2019-04-04T03:12:35.729Z,0.00
2019-04-04T03:13:35.692Z,0.00
2019-04-04T03:14:37.286Z,0.00
2019-04-04T03:15:35.666Z,0.00
2019-04-04T03:16:35.654Z,0.00
2019-04-04T03:17:35.661Z,0.00
2019-04-04T03:18:37.325Z,0.00
2019-04-04T03:19:35.626Z,0.00
2019-04-04T03:20:35.609Z,0.00
2019-04-04T03:21:35.604Z,0.00
2019-04-04T03:22:35.593Z,0.00
2019-04-04T03:23:35.618Z,0.00
2019-04-04T03:24:38.857Z,0.00
2019-04-04T03:25:35.573Z,0.00
2019-04-04T03:26:35.568Z,0.00
2019-04-04T03:27:35.540Z,0.00
2019-04-04T03:28:35.538Z,0.00
2019-04-04T03:29:37.591Z,0.00
2019-04-04T03:30:35.511Z,0.00
2019-04-04T03:31:37.393Z,0.00
2019-04-04T03:32:35.489Z,0.00
2019-04-04T03:33:35.484Z,0.00
2019-04-04T03:34:35.489Z,0.00
2019-04-04T03:35:35.462Z,0.00
2019-04-04T03:36:35.444Z,0.00
2019-04-04T03:37:35.432Z,0.00
2019-04-04T03:38:35.423Z,0.00
2019-04-04T03:39:35.436Z,0.00
2019-04-04T03:40:35.406Z,0.00
2019-04-04T03:41:36.121Z,0.00
2019-04-04T03:42:35.375Z,0.00
2019-04-04T03:43:35.363Z,0.00
2019-04-04T03:44:35.352Z,0.00
2019-04-04T03:45:35.366Z,0.00
2019-04-04T03:46:38.773Z,0.00
2019-04-04T03:47:35.328Z,0.00
2019-04-04T03:48:35.329Z,0.00
2019-04-04T03:49:35.300Z,0.00
2019-04-04T03:50:35.316Z,0.00
2019-04-04T03:51:38.104Z,0.00
2019-04-04T03:52:35.271Z,0.00
2019-04-04T03:53:35.257Z,0.00
2019-04-04T03:54:35.251Z,0.00
2019-04-04T03:55:35.240Z,0.00
2019-04-04T03:56:39.249Z,0.00
2019-04-04T03:57:35.216Z,0.00
2019-04-04T03:58:35.203Z,0.00
2019-04-04T03:59:35.192Z,0.00
2019-04-04T04:00:39.185Z,0.00
2019-04-04T04:01:36.201Z,0.00
2019-04-04T04:02:35.175Z,0.00
2019-04-04T04:03:35.157Z,0.00
2019-04-04T04:04:35.145Z,0.00
2019-04-04T04:05:36.690Z,0.00
2019-04-04T04:06:35.121Z,0.00
2019-04-04T04:07:35.118Z,4.00
2019-04-04T04:08:35.132Z,4.00
2019-04-04T04:09:35.089Z,0.00
2019-04-04T04:10:35.074Z,4.00
2019-04-04T04:11:37.367Z,4.00
2019-04-04T04:12:35.071Z,4.00
2019-04-04T04:13:35.059Z,4.00
2019-04-04T04:14:35.044Z,4.00
2019-04-04T04:15:35.027Z,8.00
2019-04-04T04:16:36.115Z,8.00
2019-04-04T04:17:36.442Z,8.00
2019-04-04T04:18:34.995Z,8.00
2019-04-04T04:19:34.983Z,12.00
2019-04-04T04:20:37.489Z,16.00
2019-04-04T04:21:34.964Z,16.00
2019-04-04T04:22:34.953Z,20.00
2019-04-04T04:23:34.952Z,24.00
2019-04-04T04:24:34.928Z,28.00
2019-04-04T04:25:36.443Z,32.00
2019-04-04T04:26:34.910Z,32.00
2019-04-04T04:27:34.898Z,40.00
2019-04-04T04:28:34.903Z,44.00
2019-04-04T04:29:34.889Z,48.00
2019-04-04T04:30:39.364Z,56.00
2019-04-04T04:31:35.861Z,60.00
2019-04-04T04:32:37.216Z,68.00
2019-04-04T04:33:34.845Z,72.00
2019-04-04T04:34:34.829Z,84.00
2019-04-04T04:35:34.818Z,88.00
2019-04-04T04:36:34.802Z,100.00
2019-04-04T04:37:34.797Z,108.00
2019-04-04T04:38:34.791Z,120.00
2019-04-04T04:39:40.884Z,132.00
2019-04-04T04:40:35.761Z,140.00
2019-04-04T04:41:34.757Z,152.00
2019-04-04T04:42:34.743Z,164.00
2019-04-04T04:43:34.757Z,176.00
2019-04-04T04:44:37.841Z,188.00
2019-04-04T04:45:34.708Z,204.00
2019-04-04T04:46:34.702Z,216.00
2019-04-04T04:47:34.702Z,232.00
2019-04-04T04:48:34.689Z,244.00
2019-04-04T04:49:35.667Z,260.00
2019-04-04T04:50:41.743Z,276.00
2019-04-04T04:51:44.158Z,296.00
2019-04-04T04:52:46.337Z,308.00
2019-04-04T04:53:42.543Z,332.00
2019-04-04T04:54:34.618Z,348.00
2019-04-04T04:55:34.603Z,364.00
2019-04-04T04:56:34.600Z,384.00
2019-04-04T04:57:37.017Z,404.00
2019-04-04T04:58:34.579Z,424.00
2019-04-04T04:59:34.555Z,444.00
2019-04-04T05:00:34.568Z,468.00
2019-04-04T05:01:34.548Z,488.00
2019-04-04T05:02:34.522Z,508.00
2019-04-04T05:03:42.069Z,532.00
2019-04-04T05:04:34.506Z,552.00
2019-04-04T05:05:34.497Z,576.00
2019-04-04T05:06:35.732Z,600.00
2019-04-04T05:07:34.485Z,620.00
2019-04-04T05:08:34.458Z,640.00
2019-04-04T05:09:34.452Z,664.00
2019-04-04T05:10:34.445Z,692.00
2019-04-04T05:11:34.430Z,716.00
2019-04-04T05:12:34.451Z,740.00
2019-04-04T05:13:34.408Z,764.00
2019-04-04T05:14:34.398Z,792.00
2019-04-04T05:15:34.386Z,816.00
2019-04-04T05:16:37.607Z,844.00
2019-04-04T05:17:34.367Z,872.00
2019-04-04T05:18:34.363Z,896.00
2019-04-04T05:19:34.348Z,924.00
2019-04-04T05:20:34.334Z,952.00
2019-04-04T05:21:34.718Z,976.00
2019-04-04T05:22:34.312Z,1000.00
2019-04-04T05:23:34.316Z,1036.00
2019-04-04T05:24:34.306Z,1068.00
2019-04-04T05:25:34.288Z,1092.00
2019-04-04T05:26:35.073Z,1120.00
2019-04-04T05:27:36.850Z,1152.00
2019-04-04T05:28:34.254Z,1200.00
2019-04-04T05:29:34.241Z,1244.00
2019-04-04T05:30:34.248Z,1280.00
2019-04-04T05:31:34.222Z,1320.00
2019-04-04T05:32:34.210Z,1380.00
2019-04-04T05:33:34.198Z,1436.00
2019-04-04T05:34:34.191Z,1476.00
2019-04-04T05:35:34.176Z,1508.00
2019-04-04T05:36:36.794Z,1544.00
2019-04-04T05:37:34.147Z,1580.00
2019-04-04T05:38:34.141Z,1616.00
2019-04-04T05:39:34.145Z,1652.00
2019-04-04T05:40:34.127Z,1692.00
2019-04-04T05:41:37.138Z,1732.00
2019-04-04T05:42:34.103Z,1772.00
2019-04-04T05:43:35.276Z,1812.00
2019-04-04T05:44:34.359Z,1844.00
2019-04-04T05:45:34.092Z,1876.00
2019-04-04T05:46:34.058Z,1912.00
2019-04-04T05:47:34.057Z,1940.00
2019-04-04T05:48:34.034Z,1976.00
2019-04-04T05:49:34.045Z,2008.00
2019-04-04T05:50:34.009Z,2040.00
2019-04-04T05:51:36.181Z,2076.00
2019-04-04T05:52:33.995Z,2116.00
2019-04-04T05:53:35.334Z,2156.00
2019-04-04T05:54:33.966Z,2196.00
2019-04-04T05:55:33.964Z,2240.00
2019-04-04T05:56:33.958Z,2284.00
2019-04-04T05:57:33.938Z,2340.00
2019-04-04T05:58:33.932Z,2396.00
2019-04-04T05:59:33.936Z,2456.00
2019-04-04T06:00:33.912Z,2508.00
2019-04-04T06:01:35.246Z,2560.00
2019-04-04T06:02:33.897Z,2604.00
2019-04-04T06:03:33.879Z,2656.00
2019-04-04T06:04:33.859Z,2700.00
2019-04-04T06:05:33.922Z,2756.00
2019-04-04T06:06:34.209Z,2812.00
2019-04-04T06:07:34.278Z,2860.00
2019-04-04T06:08:33.817Z,2908.00
2019-04-04T06:09:33.811Z,2968.00
2019-04-04T06:10:33.808Z,3020.00
2019-04-04T06:11:33.795Z,3056.00
2019-04-04T06:12:33.780Z,3104.00
2019-04-04T06:13:33.765Z,3172.00
2019-04-04T06:14:33.762Z,3256.00
2019-04-04T06:15:33.741Z,3352.00
2019-04-04T06:16:34.981Z,3492.00
2019-04-04T06:17:33.718Z,3648.00
2019-04-04T06:18:33.709Z,3824.00
2019-04-04T06:19:33.713Z,4012.00
2019-04-04T06:20:33.693Z,4172.00
2019-04-04T06:21:33.679Z,4188.00
2019-04-04T06:22:33.673Z,4300.00
2019-04-04T06:23:33.661Z,4396.00
2019-04-04T06:24:33.650Z,4428.00
2019-04-04T06:25:35.694Z,4524.00
2019-04-04T06:26:33.633Z,4740.00
2019-04-04T06:27:33.634Z,4968.00
2019-04-04T06:28:33.610Z,5204.00
2019-04-04T06:29:33.596Z,5340.00
2019-04-04T06:30:42.951Z,5424.00
2019-04-04T06:31:34.574Z,5480.00
2019-04-04T06:32:33.584Z,5712.00
2019-04-04T06:33:35.304Z,5796.00
2019-04-04T06:34:33.543Z,5608.00
2019-04-04T06:35:33.532Z,5368.00
2019-04-04T06:36:33.523Z,5092.00
2019-04-04T06:37:34.444Z,4832.00
2019-04-04T06:38:33.522Z,4780.00
2019-04-04T06:39:33.490Z,4824.00
2019-04-04T06:40:33.477Z,4696.00
2019-04-04T06:41:33.468Z,4616.00
2019-04-04T06:42:36.030Z,4608.00
2019-04-04T06:43:33.465Z,4612.00
2019-04-04T06:44:33.439Z,4624.00
2019-04-04T06:45:33.432Z,4664.00
2019-04-04T06:46:33.409Z,4720.00
2019-04-04T06:47:33.400Z,4748.00
2019-04-04T06:48:33.748Z,4764.00
2019-04-04T06:49:35.462Z,4808.00
2019-04-04T06:50:33.370Z,4856.00
2019-04-04T06:51:33.358Z,4908.00
2019-04-04T06:52:33.342Z,4956.00
2019-04-04T06:53:33.365Z,4988.00
2019-04-04T06:54:33.330Z,4992.00
2019-04-04T06:55:38.332Z,5032.00
2019-04-04T06:56:34.298Z,5072.00
2019-04-04T06:57:36.153Z,5144.00
2019-04-04T06:58:33.283Z,5204.00
2019-04-04T06:59:33.843Z,5268.00
2019-04-04T07:00:33.287Z,5356.00
2019-04-04T07:01:33.261Z,5428.00
2019-04-04T07:02:33.235Z,5520.00
2019-04-04T07:03:33.223Z,5592.00
2019-04-04T07:04:36.047Z,5676.00
2019-04-04T07:05:33.204Z,5784.00
2019-04-04T07:06:33.218Z,5924.00
2019-04-04T07:07:33.191Z,6044.00
2019-04-04T07:08:33.174Z,6088.00
2019-04-04T07:09:33.158Z,6124.00
2019-04-04T07:10:33.153Z,6212.00
2019-04-04T07:11:35.210Z,6304.00
2019-04-04T07:12:33.134Z,6372.00
2019-04-04T07:13:42.264Z,6472.00
2019-04-04T07:14:45.098Z,6544.00
2019-04-04T07:15:45.855Z,6632.00
2019-04-04T07:16:36.506Z,6708.00
2019-04-04T07:17:33.081Z,6768.00
2019-04-04T07:18:33.081Z,6856.00
2019-04-04T07:19:33.059Z,6856.00
2019-04-04T07:20:33.044Z,6852.00
2019-04-04T07:21:33.033Z,6944.00
2019-04-04T07:22:33.020Z,6984.00
2019-04-04T07:23:33.037Z,7004.00
2019-04-04T07:24:33.007Z,6984.00
2019-04-04T07:25:35.686Z,7192.00
2019-04-04T07:26:32.989Z,7292.00
2019-04-04T07:27:32.966Z,7348.00
2019-04-04T07:28:32.960Z,7048.00
2019-04-04T07:29:32.958Z,6968.00
2019-04-04T07:30:32.937Z,7368.00
2019-04-04T07:31:34.043Z,7716.00
2019-04-04T07:32:32.916Z,7824.00
2019-04-04T07:33:32.912Z,8064.00
2019-04-04T07:34:32.909Z,8240.00
2019-04-04T07:35:32.882Z,8432.00
2019-04-04T07:36:32.888Z,8532.00
2019-04-04T07:37:32.882Z,8540.00
2019-04-04T07:38:35.039Z,8208.00
2019-04-04T07:39:32.909Z,7804.00
2019-04-04T07:40:36.194Z,7384.00
2019-04-04T07:41:32.817Z,7712.00
2019-04-04T07:42:32.809Z,7492.00
2019-04-04T07:43:32.809Z,7696.00
2019-04-04T07:44:32.788Z,8792.00
2019-04-04T07:45:32.789Z,9132.00
2019-04-04T07:46:32.771Z,9228.00
2019-04-04T07:47:32.761Z,9272.00
2019-04-04T07:48:32.794Z,9248.00
2019-04-04T07:49:32.738Z,9360.00
2019-04-04T07:50:32.721Z,9512.00
2019-04-04T07:51:32.716Z,9600.00
2019-04-04T07:52:33.226Z,9532.00
2019-04-04T07:53:34.235Z,9444.00
2019-04-04T07:54:32.690Z,9380.00
2019-04-04T07:55:32.677Z,8928.00
2019-04-04T07:56:32.672Z,8808.00
2019-04-04T07:57:32.652Z,8592.00
2019-04-04T07:58:32.651Z,9204.00
2019-04-04T07:59:32.642Z,9312.00
2019-04-04T08:00:32.621Z,8852.00
2019-04-04T08:01:32.602Z,9144.00
2019-04-04T08:02:32.596Z,8788.00
2019-04-04T08:03:32.582Z,8724.00
2019-04-04T08:04:32.583Z,8432.00
2019-04-04T08:05:32.581Z,7808.00
2019-04-04T08:06:32.549Z,9112.00
2019-04-04T08:07:32.552Z,7380.00
2019-04-04T08:08:32.548Z,6452.00
2019-04-04T08:09:32.524Z,8636.00
2019-04-04T08:10:32.512Z,7584.00
2019-04-04T08:11:32.498Z,8168.00
2019-04-04T08:12:32.492Z,9624.00
2019-04-04T08:13:32.484Z,9300.00
2019-04-04T08:14:32.467Z,8788.00
2019-04-04T08:15:32.462Z,6460.00
2019-04-04T08:16:32.463Z,5660.00
2019-04-04T08:17:32.439Z,5820.00
2019-04-04T08:18:32.436Z,5040.00
2019-04-04T08:19:32.417Z,5488.00
2019-04-04T08:20:32.400Z,5672.00
2019-04-04T08:21:32.396Z,4840.00
2019-04-04T08:22:32.386Z,4168.00
2019-04-04T08:23:32.410Z,4868.00
2019-04-04T08:24:32.366Z,6888.00
2019-04-04T08:25:32.356Z,7836.00
2019-04-04T08:26:32.347Z,7840.00
2019-04-04T08:27:32.329Z,7252.00
2019-04-04T08:28:32.325Z,6216.00
2019-04-04T08:29:32.315Z,6544.00
2019-04-04T08:30:32.302Z,8348.00
2019-04-04T08:31:32.293Z,8724.00
2019-04-04T08:32:32.283Z,8660.00
2019-04-04T08:33:32.292Z,8628.00
2019-04-04T08:34:32.256Z,8608.00
2019-04-04T08:35:32.247Z,8808.00
2019-04-04T08:36:32.230Z,8836.00
2019-04-04T08:37:32.223Z,8824.00
2019-04-04T08:38:32.217Z,8944.00
2019-04-04T08:39:32.209Z,8988.00
2019-04-04T08:40:32.187Z,8936.00
2019-04-04T08:41:32.186Z,8940.00
2019-04-04T08:42:32.171Z,9060.00
2019-04-04T08:43:32.160Z,9116.00
2019-04-04T08:44:32.151Z,9080.00
2019-04-04T08:45:32.152Z,9232.00
2019-04-04T08:46:32.141Z,9372.00
2019-04-04T08:47:32.120Z,9396.00
2019-04-04T08:48:32.109Z,9368.00
2019-04-04T08:49:32.103Z,9240.00
2019-04-04T08:50:32.117Z,9356.00
2019-04-04T08:51:32.093Z,9328.00
2019-04-04T08:52:32.063Z,9316.00
2019-04-04T08:53:39.655Z,9332.00
2019-04-04T08:54:33.037Z,9372.00
2019-04-04T08:55:32.037Z,9400.00
2019-04-04T08:56:32.034Z,9252.00
2019-04-04T08:57:32.017Z,9156.00
2019-04-04T08:58:32.007Z,9364.00
2019-04-04T08:59:31.993Z,9420.00
2019-04-04T09:00:31.979Z,9292.00
2019-04-04T09:01:32.008Z,9388.00
2019-04-04T09:02:31.963Z,9448.00
2019-04-04T09:03:31.956Z,9376.00
2019-04-04T09:04:31.947Z,9336.00
2019-04-04T09:05:31.940Z,9476.00
2019-04-04T09:06:31.921Z,9508.00
2019-04-04T09:07:31.919Z,9556.00
2019-04-04T09:08:31.937Z,9552.00
2019-04-04T09:09:34.514Z,9536.00
2019-04-04T09:10:31.873Z,9640.00
2019-04-04T09:11:31.861Z,9704.00
2019-04-04T09:12:31.851Z,9816.00
2019-04-04T09:13:31.850Z,9780.00
2019-04-04T09:14:31.848Z,9836.00
2019-04-04T09:15:31.822Z,9824.00
2019-04-04T09:16:31.818Z,9736.00
2019-04-04T09:17:31.800Z,9652.00
2019-04-04T09:18:31.816Z,9676.00
2019-04-04T09:19:31.781Z,9704.00
2019-04-04T09:20:31.776Z,9340.00
2019-04-04T09:21:31.768Z,9376.00
2019-04-04T09:22:31.754Z,8960.00
2019-04-04T09:23:31.739Z,8928.00
2019-04-04T09:24:31.751Z,8904.00
2019-04-04T09:25:31.724Z,8916.00
2019-04-04T09:26:31.719Z,8908.00
2019-04-04T09:27:31.699Z,8676.00
2019-04-04T09:28:31.700Z,8588.00
2019-04-04T09:29:31.679Z,8616.00
2019-04-04T09:30:31.676Z,8952.00
2019-04-04T09:31:31.658Z,9120.00
2019-04-04T09:32:31.656Z,9292.00
2019-04-04T09:33:31.649Z,9604.00
2019-04-04T09:34:31.634Z,9692.00
2019-04-04T09:35:31.626Z,9788.00
2019-04-04T09:37:40.370Z,9352.00
2019-04-04T09:38:40.369Z,9880.00
2019-04-04T09:39:40.362Z,9864.00
2019-04-04T09:40:40.339Z,9764.00
2019-04-04T09:41:40.339Z,9860.00
2019-04-04T09:42:40.342Z,9460.00
2019-04-04T09:43:40.322Z,9724.00
2019-04-04T09:44:40.300Z,9176.00
2019-04-04T09:46:32.159Z,9264.00
2019-04-04T09:47:32.157Z,8788.00
2019-04-04T09:48:32.153Z,8788.00
2019-04-04T09:49:32.132Z,9052.00
2019-04-04T09:50:32.121Z,8900.00
2019-04-04T09:51:32.112Z,8660.00
2019-04-04T09:52:32.109Z,8980.00
2019-04-04T09:53:32.097Z,9308.00
2019-04-04T09:54:32.079Z,10072.00
2019-04-04T09:55:32.075Z,10536.00
2019-04-04T09:56:32.061Z,9312.00
2019-04-04T09:57:32.051Z,10900.00
2019-04-04T09:58:32.041Z,9900.00
2019-04-04T09:59:32.027Z,9684.00
2019-04-04T10:00:32.016Z,10916.00
2019-04-04T10:01:32.007Z,11488.00
2019-04-04T10:02:32.006Z,11892.00
2019-04-04T10:03:32.012Z,11808.00
2019-04-04T10:04:31.976Z,11476.00
2019-04-04T10:05:31.963Z,10348.00
2019-04-04T10:06:31.949Z,9972.00
2019-04-04T10:07:31.945Z,9324.00
2019-04-04T10:08:31.934Z,9876.00
2019-04-04T10:09:31.927Z,10772.00
2019-04-04T10:10:31.918Z,10628.00
2019-04-04T10:11:31.907Z,10488.00
2019-04-04T10:12:31.888Z,10172.00
2019-04-04T10:13:31.919Z,10376.00
2019-04-04T10:14:31.867Z,10448.00
2019-04-04T10:15:31.863Z,10740.00
2019-04-04T10:16:31.855Z,10632.00
2019-04-04T10:17:31.843Z,9032.00
2019-04-04T10:18:31.830Z,9264.00
2019-04-04T10:19:31.829Z,9652.00
2019-04-04T10:20:31.807Z,10032.00
2019-04-04T10:21:31.800Z,11964.00
2019-04-04T10:22:31.798Z,12148.00
2019-04-04T10:23:31.778Z,12248.00
2019-04-04T10:24:31.773Z,11916.00
2019-04-04T10:25:31.762Z,11436.00
2019-04-04T10:26:31.752Z,11612.00
2019-04-04T10:27:31.732Z,11472.00
2019-04-04T10:28:31.737Z,11708.00
2019-04-04T10:29:31.725Z,11932.00
2019-04-04T10:30:31.703Z,11960.00
2019-04-04T10:31:31.709Z,12052.00
2019-04-04T10:32:31.688Z,11660.00
2019-04-04T10:33:31.672Z,11128.00
2019-04-04T10:34:31.674Z,10464.00
2019-04-04T10:35:31.661Z,9800.00
2019-04-04T10:36:31.646Z,9908.00
2019-04-04T10:37:31.639Z,10952.00
2019-04-04T10:38:31.624Z,11472.00
2019-04-04T10:39:32.851Z,11252.00
2019-04-04T10:40:31.599Z,11272.00
2019-04-04T10:41:31.600Z,11224.00
2019-04-04T10:42:31.584Z,11092.00
2019-04-04T10:43:31.573Z,10928.00
2019-04-04T10:44:31.558Z,10856.00
2019-04-04T10:45:31.562Z,10804.00
2019-04-04T10:46:31.547Z,10756.00
2019-04-04T10:47:31.528Z,10728.00
2019-04-04T10:48:31.532Z,10852.00
2019-04-04T10:49:31.508Z,10800.00
2019-04-04T10:50:31.512Z,11068.00
2019-04-04T10:51:31.489Z,11208.00
2019-04-04T10:52:31.488Z,11284.00
2019-04-04T10:53:31.474Z,11324.00
2019-04-04T10:54:31.457Z,11180.00
2019-04-04T10:55:31.458Z,10932.00
2019-04-04T10:56:31.450Z,11040.00
2019-04-04T10:57:31.433Z,11476.00
2019-04-04T10:58:31.424Z,11544.00
2019-04-04T10:59:31.407Z,11688.00
2019-04-04T11:00:31.424Z,11376.00
2019-04-04T11:01:31.396Z,11492.00
2019-04-04T11:02:31.385Z,12096.00
2019-04-04T11:03:31.369Z,12984.00
2019-04-04T11:04:31.361Z,12920.00
2019-04-04T11:05:31.348Z,12892.00
2019-04-04T11:06:31.418Z,11908.00
2019-04-04T11:07:31.332Z,11468.00
2019-04-04T11:08:31.322Z,13424.00
2019-04-04T11:09:41.381Z,13320.00
2019-04-04T11:10:32.302Z,13776.00
2019-04-04T11:11:31.293Z,13864.00
2019-04-04T11:12:34.119Z,13776.00
2019-04-04T11:13:33.875Z,13196.00
2019-04-04T11:14:31.272Z,14180.00
2019-04-04T11:15:31.266Z,15040.00
2019-04-04T11:16:31.239Z,16192.00
2019-04-04T11:17:31.237Z,17600.00
2019-04-04T11:18:31.257Z,19456.00
2019-04-04T11:19:31.640Z,26304.00
2019-04-04T11:20:31.197Z,32384.00
2019-04-04T11:21:31.192Z,45696.00
2019-04-04T11:22:31.182Z,39104.00
2019-04-04T11:23:31.171Z,45216.00
2019-04-04T11:24:31.423Z,71360.00
2019-04-04T11:25:31.146Z,76288.00
2019-04-04T11:26:31.134Z,77088.00
2019-04-04T11:27:31.226Z,81536.00
2019-04-04T11:28:31.139Z,84448.00
2019-04-04T11:29:31.145Z,83776.00
2019-04-04T11:30:31.094Z,83808.00
2019-04-04T11:31:31.084Z,87680.00
2019-04-04T11:32:31.075Z,86112.00
2019-04-04T11:33:31.066Z,82848.00
2019-04-04T11:34:31.055Z,65600.00
2019-04-04T11:35:31.054Z,57728.00
2019-04-04T11:36:31.038Z,49184.00
2019-04-04T11:37:31.027Z,65984.00
2019-04-04T11:38:31.859Z,70048.00
2019-04-04T11:39:31.003Z,77184.00
2019-04-04T11:40:31.006Z,80864.00
2019-04-04T11:41:31.020Z,75552.00
2019-04-04T11:42:30.978Z,72640.00
2019-04-04T11:43:31.009Z,69280.00
2019-04-04T11:44:30.981Z,52448.00
2019-04-04T11:45:30.948Z,50912.00
2019-04-04T11:46:30.975Z,40608.00
2019-04-04T11:47:30.942Z,49664.00
2019-04-04T11:48:30.928Z,52288.00
2019-04-04T11:49:31.034Z,59776.00
2019-04-04T11:50:30.900Z,55552.00
2019-04-04T11:51:30.947Z,83392.00
2019-04-04T11:52:30.872Z,77344.00
2019-04-04T11:53:30.867Z,61024.00
2019-04-04T11:54:30.855Z,33472.00
2019-04-04T11:55:30.848Z,49760.00
2019-04-04T11:56:30.832Z,39392.00
2019-04-04T11:57:30.830Z,46656.00
2019-04-04T11:58:30.815Z,33408.00
2019-04-04T11:59:30.800Z,22400.00
2019-04-04T12:00:30.803Z,27040.00
2019-04-04T12:01:31.401Z,23744.00
2019-04-04T12:02:32.526Z,29408.00
2019-04-04T12:03:30.767Z,32224.00
2019-04-04T12:04:30.747Z,37568.00
2019-04-04T12:05:30.738Z,49152.00
2019-04-04T12:06:30.727Z,79296.00
2019-04-04T12:07:30.730Z,82176.00
2019-04-04T12:08:30.715Z,72512.00
2019-04-04T12:09:30.701Z,45952.00
2019-04-04T12:10:30.722Z,33600.00
2019-04-04T12:11:30.675Z,36640.00
2019-04-04T12:12:31.403Z,57120.00
2019-04-04T12:13:30.658Z,67680.00
2019-04-04T12:14:30.645Z,65696.00
2019-04-04T12:15:30.641Z,80192.00
2019-04-04T12:16:32.730Z,90304.00
2019-04-04T12:17:30.618Z,93408.00
2019-04-04T12:18:30.608Z,91200.00
2019-04-04T12:19:30.598Z,92832.00
2019-04-04T12:20:30.593Z,88576.00
2019-04-04T12:21:30.577Z,83264.00
2019-04-04T12:22:30.574Z,75904.00
2019-04-04T12:23:30.595Z,83136.00
2019-04-04T12:24:30.541Z,90304.00
2019-04-04T12:25:30.549Z,92192.00
2019-04-04T12:26:30.524Z,87776.00
2019-04-04T12:27:30.534Z,87904.00
2019-04-04T12:28:30.504Z,89536.00
2019-04-04T12:29:30.489Z,88672.00